Chornomors'Ke, Ukraine
Current Conditions -  °F | °C
As of 9:30 AM on Friday 28 Nov 2014 (Local Time) from URFF Reporting Station
Overcast Overcast  
Wind Chill: 32°   Ceiling: 3600
Heat Index: 32°   Visibility: 6mi
Dew Point: 28°   Wind: 2mph
Humidity: 87%   Direction: 160°SSE
Pressure: 30.3"   Gusts: NA
Location:  45.52°N, 32.7°E
Report Text: URFF 280630Z 16001MPS 9999 OVC036 00/M02 Q1026 19290355 NOSIG
Loading
Personal Weather Stations






























Interactive Weather Map New forecast layout! Learn more

10-Day Weather Forecast

Advertisements
Track Severe Weather on mobile